Data for 10/09/2010

Time Sea-Level Adjusted Pressure Absolute Pressure Temperature Relative Humidity Dew Point   
(mb) (inHg) (mb) (inHg) (C) (F) (%) (C) (F)
00:05 1023 30.21 852 25.16 10.1 50.1 67 4.4 39.9
00:10 1023 30.21 852 25.16 10.1 50.2 67 4.4 39.8
00:15 1023 30.21 852 25.16 10.1 50.2 67 4.3 39.8
00:20 1023 30.21 852 25.16 10 50.1 68 4.4 39.8
00:25 1023 30.21 852 25.16 9.9 49.9 67 4.2 39.5
00:30 1023 30.21 852 25.16 9.9 49.8 67 4.2 39.5
00:35 1023 30.21 852 25.16 9.9 49.7 67 4 39.3
00:40 1023 30.21 852 25.16 9.8 49.7 68 4.2 39.6
00:45 1023 30.21 852 25.16 9.5 49.2 70 4.3 39.7
00:50 1023 30.21 852 25.16 9.4 48.8 69 4.1 39.4
00:55 1023 30.21 852 25.16 9.4 48.9 69 4 39.3
01:00 1023 30.21 852 25.16 9.5 49.1 69 4.2 39.5
01:05 1023 30.21 852 25.16 9.4 49 69 4.1 39.4
01:10 1023 30.21 852 25.16 9.4 48.9 70 4.3 39.7
01:15 1023 30.21 852 25.16 9.2 48.6 71 4.3 39.8
01:20 1023 30.21 852 25.16 9.1 48.4 72 4.3 39.7
01:25 1023 30.21 852 25.16 9.1 48.5 71 4.2 39.6
01:30 1023 30.21 852 25.16 9.2 48.5 71 4.2 39.6
01:35 1023 30.21 852 25.16 9.2 48.6 71 4.2 39.6
01:40 1023 30.21 852 25.16 9.3 48.7 71 4.3 39.7
01:45 1023 30.21 852 25.16 9.3 48.8 70 4.2 39.6
01:50 1023 30.21 852 25.16 9.3 48.8 70 4.3 39.7
01:55 1023 30.21 853 25.19 9.4 48.8 70 4.3 39.7
02:00 1023 30.21 853 25.19 9.4 49 70 4.3 39.7
02:05 1023 30.21 853 25.19 9.4 49 70 4.2 39.6
02:10 1023 30.21 853 25.19 9.4 48.9 70 4.3 39.7
02:15 1024 30.24 853 25.19 9.4 48.9 70 4.2 39.5
02:20 1024 30.24 853 25.19 9.4 48.9 70 4.3 39.7
02:25 1024 30.24 853 25.19 9.4 48.9 70 4.2 39.6
02:30 1024 30.24 853 25.19 9.4 49 70 4.2 39.6
02:35 1024 30.24 853 25.19 9.4 48.9 70 4.2 39.6
02:40 1024 30.24 853 25.19 9.4 48.9 69 4.1 39.4
02:45 1024 30.24 853 25.19 9.5 49 71 4.4 39.9
02:50 1024 30.24 853 25.19 9.4 48.9 70 4.3 39.7
02:55 1024 30.24 853 25.19 9.4 49 70 4.2 39.5
03:00 1024 30.24 853 25.19 9.5 49 70 4.3 39.7
03:05 1024 30.24 853 25.19 9.5 49 69 4 39.2
03:10 1024 30.24 853 25.19 9.5 49.1 69 4.2 39.6
03:15 1024 30.24 853 25.19 9.5 49 70 4.2 39.6
03:20 1024 30.24 853 25.19 9.4 49 70 4.3 39.8
03:25 1024 30.24 853 25.19 9.3 48.7 71 4.4 39.9
03:30 1024 30.24 853 25.19 9.3 48.7 71 4.3 39.7
03:35 1024 30.24 853 25.19 9.3 48.7 71 4.4 39.9
03:40 1024 30.24 853 25.19 9.3 48.7 71 4.3 39.7
03:45 1024 30.24 853 25.19 9.2 48.6 73 4.6 40.4
03:50 1024 30.24 853 25.19 8.9 48.1 74 4.5 40.1
03:55 1024 30.24 853 25.19 8.8 47.9 74 4.4 40
04:00 1024 30.24 853 25.19 8.9 47.9 74 4.5 40
04:05 1024 30.24 853 25.19 8.8 47.8 74 4.5 40.1
04:10 1024 30.24 853 25.19 8.8 47.9 74 4.5 40.2
04:15 1024 30.24 854 25.22 8.9 48 75 4.7 40.4
04:20 1024 30.24 854 25.22 9 48.2 75 4.7 40.5
04:25 1024 30.24 854 25.22 9 48.1 75 4.9 40.7
04:30 1024 30.24 854 25.22 9.1 48.4 74 4.8 40.7
04:35 1024 30.24 854 25.22 9.1 48.3 76 5.1 41.1
04:40 1024 30.24 854 25.22 8.8 47.8 78 5.2 41.4
04:45 1024 30.24 854 25.22 8.6 47.5 79 5.1 41.2
04:50 1025 30.27 854 25.22 8.6 47.4 78 5 41
04:55 1025 30.27 854 25.22 8.7 47.7 76 4.8 40.7
05:00 1025 30.27 854 25.22 8.8 47.8 77 5.1 41.1
05:05 1025 30.27 854 25.22 8.7 47.6 80 5.4 41.8
05:10 1025 30.27 854 25.22 8.6 47.4 78 4.9 40.9
05:15 1025 30.27 854 25.22 8.7 47.6 77 4.9 40.8
05:20 1025 30.27 854 25.22 8.7 47.7 79 5.3 41.5
05:25 1025 30.27 854 25.22 8.7 47.6 76 4.7 40.4
05:30 1025 30.27 854 25.22 8.9 48 77 5.1 41.2
05:35 1025 30.27 854 25.22 8.8 47.9 79 5.3 41.6
05:40 1025 30.27 854 25.22 8.6 47.5 80 5.3 41.6
05:45 1025 30.27 854 25.22 8.6 47.6 79 5.2 41.3
05:50 1025 30.27 854 25.22 8.8 47.8 79 5.3 41.6
05:55 1025 30.27 854 25.22 8.7 47.7 81 5.6 42
06:00 1025 30.27 854 25.22 8.6 47.6 80 5.5 41.8
06:05 1025 30.27 854 25.22 8.7 47.6 80 5.4 41.7
06:10 1025 30.27 854 25.22 8.6 47.4 80 5.3 41.6
06:15 1025 30.27 854 25.22 8.6 47.4 79 5.1 41.2
06:20 1025 30.27 854 25.22 8.6 47.5 79 5.1 41.2
06:25 1025 30.27 854 25.22 8.7 47.6 79 5.2 41.3
06:30 1025 30.27 854 25.22 8.8 47.8 77 5 41
06:35 1025 30.27 854 25.22 8.8 47.8 78 5.2 41.3
06:40 1025 30.27 854 25.22 8.6 47.6 78 5 40.9
06:45 1025 30.27 854 25.22 8.7 47.6 76 4.7 40.4
06:50 1025 30.27 854 25.22 8.8 47.8 77 5 41
06:55 1025 30.27 854 25.22 8.7 47.7 77 5 41
07:00 1025 30.27 854 25.22 8.6 47.5 78 5.1 41.2
07:05 1025 30.27 854 25.22 8.7 47.6 78 5 41
07:10 1025 30.27 854 25.22 8.7 47.7 76 4.7 40.5
07:15 1025 30.27 854 25.22 8.8 47.8 77 5 40.9
07:20 1025 30.27 854 25.22 8.8 47.8 77 5 41.1
07:25 1025 30.27 854 25.22 8.8 47.8 76 4.7 40.5
07:30 1025 30.27 854 25.22 8.8 47.8 73 4.2 39.6
07:35 1025 30.27 854 25.22 8.9 48.1 72 4.2 39.6
07:40 1025 30.27 855 25.25 9 48.1 73 4.3 39.8
07:45 1025 30.27 855 25.25 9.1 48.3 73 4.4 40
07:50 1026 30.3 855 25.25 9.1 48.4 72 4.3 39.8
07:55 1026 30.3 855 25.25 9.1 48.4 71 4.3 39.7
08:00 1026 30.3 855 25.25 9.1 48.4 71 4.1 39.3
08:05 1026 30.3 855 25.25 9.2 48.5 72 4.3 39.8
08:10 1026 30.3 855 25.25 9.1 48.5 71 4.2 39.6
08:15 1026 30.3 855 25.25 9.1 48.3 71 4.2 39.5
08:20 1026 30.3 855 25.25 9.1 48.3 72 4.2 39.6
08:25 1026 30.3 855 25.25 9 48.2 72 4.3 39.7
08:30 1026 30.3 855 25.25 8.9 48.1 72 4.1 39.4
08:35 1026 30.3 855 25.25 8.9 48 72 4.1 39.4
08:40 1026 30.3 855 25.25 8.8 47.9 72 4 39.2
08:45 1026 30.3 855 25.25 8.8 47.8 72 4.1 39.3
08:50 1026 30.3 855 25.25 8.7 47.7 74 4.4 39.8
08:55 1026 30.3 855 25.25 8.5 47.2 75 4.2 39.6
09:00 1026 30.3 855 25.25 8.4 47.1 74 4.1 39.4
09:05 1026 30.3 855 25.25 8.4 47.1 74 4 39.2
09:10 1026 30.3 855 25.25 8.4 47.1 74 4 39.1
09:15 1026 30.3 855 25.25 8.6 47.4 73 4.1 39.4
09:20 1026 30.3 855 25.25 8.2 46.8 74 3.8 38.9
09:25 1026 30.3 855 25.25 8.1 46.5 74 3.7 38.7
09:30 1026 30.3 855 25.25 8.4 47.1 74 4 39.1
09:35 1026 30.3 855 25.25 9 48.3 71 4.1 39.5
09:40 1026 30.3 855 25.25 9.5 49.2 66 3.6 38.4
09:45 1026 30.3 855 25.25 9.9 49.8 68 4.2 39.6
09:50 1026 30.3 855 25.25 10.7 51.3 63 4 39.2
09:55 1026 30.3 855 25.25 11.6 52.8 61 4.3 39.8
10:00 1026 30.3 855 25.25 11.9 53.4 58 3.8 38.9
10:05 1026 30.3 856 25.28 11.9 53.3 61 4.5 40.2
10:10 1026 30.3 856 25.28 11.4 52.5 62 4.4 39.8
10:15 1026 30.3 856 25.28 11.8 53.3 59 4 39.3
10:20 1026 30.3 856 25.28 12.4 54.3 56 3.9 39
10:25 1026 30.3 856 25.28 12.3 54.1 55 3.6 38.5
10:30 1026 30.3 856 25.28 13 55.4 53 3.8 38.9
10:35 1026 30.3 856 25.28 13.2 55.7 53 4 39.1
10:40 1026 30.3 856 25.28 13.3 56 52 3.7 38.7
10:45 1026 30.3 856 25.28 13.4 56.1 50 3.2 37.7
10:50 1026 30.3 856 25.28 13.4 56.1 50 3.4 38.1
10:55 1026 30.3 856 25.28 13.4 56 50 3.2 37.8
11:00 1026 30.3 856 25.28 13.3 55.9 50 3.2 37.8
11:05 1026 30.3 856 25.28 13.5 56.4 50 3.3 38
11:10 1026 30.3 856 25.28 13.4 56 51 3.4 38.1
11:15 1026 30.3 856 25.28 12.6 54.7 53 3.3 37.9
11:20 1026 30.3 856 25.28 13.7 56.7 49 3.2 37.8
11:25 1026 30.3 856 25.28 14.3 57.8 48 3.5 38.4
11:30 1026 30.3 856 25.28 14.3 57.7 48 3.4 38.2
11:35 1026 30.3 856 25.28 13.7 56.6 51 3.8 38.9
11:40 1026 30.3 856 25.28 13.2 55.8 49 2.9 37.1
11:45 1026 30.3 856 25.28 13.9 56.9 49 3.3 38
11:50 1026 30.3 856 25.28 14.4 57.8 46 3.1 37.6
11:55 1026 30.3 856 25.28 14.8 58.6 45 3.2 37.7
12:00 1026 30.3 856 25.28 14.6 58.2 45 2.7 36.9
12:05 1026 30.3 856 25.28 14.9 58.7 45 3 37.4
12:10 1026 30.3 856 25.28 14.7 58.4 45 2.8 37.1
12:15 1026 30.3 856 25.28 15.1 59.2 45 3.4 38.1
12:20 1026 30.3 856 25.28 13.6 56.4 49 3.1 37.5
12:25 1026 30.3 856 25.28 14.6 58.2 45 2.7 36.9
12:30 1026 30.3 856 25.28 15.3 59.5 43 2.8 37.1
12:35 1026 30.3 856 25.28 15.4 59.7 44 3.2 37.8
12:40 1026 30.3 856 25.28 15.2 59.4 44 3.1 37.6
12:45 1026 30.3 855 25.25 15.2 59.3 46 3.6 38.4
12:50 1026 30.3 855 25.25 15.5 60 43 3.1 37.6
12:55 1026 30.3 855 25.25 16 60.8 41 2.8 37
13:00 1026 30.3 855 25.25 15.3 59.5 44 3.1 37.6
13:05 1026 30.3 855 25.25 15.5 59.9 43 3 37.5
13:10 1026 30.3 855 25.25 15.8 60.4 43 3.2 37.7
13:15 1026 30.3 855 25.25 14.9 58.9 46 3.4 38.1
13:20 1026 30.3 855 25.25 15 58.9 44 3.1 37.5
13:25 1026 30.3 855 25.25 15.5 60 42 2.8 37
13:30 1026 30.3 855 25.25 16.2 61.2 40 2.7 36.9
13:35 1026 30.3 855 25.25 17.2 63 38 3 37.3
13:40 1026 30.3 855 25.25 17.4 63.2 39 3.4 38.1
13:45 1026 30.3 855 25.25 17.3 63.1 41 4 39.2
13:50 1026 30.3 855 25.25 16.6 61.9 42 3.7 38.6
13:55 1026 30.3 855 25.25 15.4 59.7 43 2.9 37.3
14:00 1026 30.3 855 25.25 15.9 60.7 42 3.2 37.7
14:05 1025 30.27 855 25.25 16.6 62 40 3.1 37.6
14:10 1025 30.27 855 25.25 17.6 63.6 40 3.8 38.9
14:15 1025 30.27 855 25.25 16.7 62.1 40 3.2 37.7
14:20 1025 30.27 855 25.25 16.7 62.1 40 3 37.4
14:25 1025 30.27 854 25.22 16.7 62 40 3.1 37.5
14:30 1025 30.27 854 25.22 16.7 62 40 3.1 37.5
14:35 1025 30.27 854 25.22 16.6 61.9 41 3.5 38.4
14:40 1025 30.27 854 25.22 16.9 62.5 39 3.1 37.6
14:45 1025 30.27 854 25.22 17.5 63.5 37 2.9 37.1
14:50 1025 30.27 854 25.22 17.8 64 37 3 37.4
14:55 1025 30.27 854 25.22 18.2 64.7 37 3.4 38.1
15:00 1025 30.27 854 25.22 18.3 64.9 36 2.9 37.2
15:05 1025 30.27 854 25.22 17.5 63.4 39 3.6 38.5
15:10 1025 30.27 854 25.22 17 62.6 40 3.4 38.1
15:15 1025 30.27 854 25.22 17 62.6 36 1.8 35.2
15:20 1025 30.27 854 25.22 17.8 64.1 34 2 35.6
15:25 1025 30.27 854 25.22 18 64.4 35 2.4 36.3
15:30 1025 30.27 854 25.22 18 64.4 34 2 35.6
15:35 1025 30.27 854 25.22 18.6 65.5 34 2.6 36.7
15:40 1025 30.27 854 25.22 18.8 65.8 33 2.2 35.9
15:45 1025 30.27 854 25.22 18.7 65.7 35 3 37.3
15:50 1025 30.27 854 25.22 18.6 65.4 33 2 35.6
15:55 1025 30.27 854 25.22 18.9 66 32 1.9 35.4
16:00 1025 30.27 854 25.22 18.8 65.8 33 2.1 35.8
16:05 1025 30.27 854 25.22 18.3 64.9 33 1.8 35.2
16:10 1025 30.27 854 25.22 18.2 64.8 33 1.9 35.5
16:15 1025 30.27 854 25.22 18.6 65.5 33 2 35.6
16:20 1025 30.27 854 25.22 19.3 66.7 33 2.8 37.1
16:25 1025 30.27 854 25.22 19 66.1 32 2.2 35.9
16:30 1025 30.27 854 25.22 18.8 65.8 33 2.5 36.4
16:35 1025 30.27 854 25.22 18.6 65.4 33 2.3 36.1
16:40 1025 30.27 854 25.22 18.2 64.7 34 2.3 36.1
16:45 1025 30.27 854 25.22 17.7 63.8 35 2.2 35.9
16:50 1025 30.27 854 25.22 17.5 63.4 35 1.9 35.4
16:55 1025 30.27 854 25.22 17.6 63.7 35 2.2 35.9
17:00 1025 30.27 854 25.22 17.7 63.9 36 2.7 36.9
17:05 1025 30.27 854 25.22 16.8 62.2 38 2.7 36.8
17:10 1025 30.27 854 25.22 16.3 61.3 39 2.5 36.4
17:15 1025 30.27 854 25.22 16.2 61.1 41 3 37.4
17:20 1025 30.27 854 25.22 16.1 61 41 3 37.3
17:25 1025 30.27 854 25.22 16.1 61 41 3.1 37.5
17:30 1025 30.27 854 25.22 15.8 60.4 42 2.9 37.2
17:35 1025 30.27 854 25.22 15.6 60.2 42 2.8 37
17:40 1025 30.27 854 25.22 15.7 60.3 43 3.2 37.7
17:45 1025 30.27 854 25.22 16 60.8 42 3.2 37.8
17:50 1025 30.27 854 25.22 16.2 61.1 41 3 37.4
17:55 1025 30.27 854 25.22 16.2 61.2 41 3 37.5
18:00 1025 30.27 854 25.22 16.1 61 42 3.3 38
18:05 1025 30.27 854 25.22 15.9 60.6 43 3.4 38.1
18:10 1025 30.27 854 25.22 15.9 60.6 43 3.5 38.3
18:15 1025 30.27 854 25.22 16.2 61.1 43 3.6 38.5
18:20 1025 30.27 854 25.22 16 60.8 44 3.9 39
18:25 1025 30.27 854 25.22 15.7 60.3 44 3.8 38.8
18:30 1025 30.27 854 25.22 15.6 60 45 3.8 38.8
18:35 1025 30.27 854 25.22 15.5 59.8 45 3.7 38.7
18:40 1025 30.27 854 25.22 15.3 59.6 47 4.3 39.7
18:45 1025 30.27 854 25.22 15.2 59.4 50 4.9 40.8
18:50 1025 30.27 854 25.22 15 59.1 51 5.2 41.3
18:55 1025 30.27 854 25.22 14.7 58.4 52 5.1 41.2
19:00 1025 30.27 854 25.22 14.2 57.5 53 4.8 40.7
19:05 1025 30.27 854 25.22 13.6 56.5 55 4.8 40.6
19:10 1025 30.27 854 25.22 13.2 55.7 57 4.9 40.8
19:15 1025 30.27 854 25.22 13.1 55.5 57 4.8 40.6
19:20 1025 30.27 854 25.22 12.8 55 58 4.7 40.5
19:25 1025 30.27 854 25.22 12.5 54.4 58 4.5 40.1
19:30 1025 30.27 854 25.22 12.4 54.3 56 4 39.3
19:35 1025 30.27 854 25.22 12.3 54.2 56 3.9 39.1
19:40 1025 30.27 854 25.22 12.2 53.9 56 3.8 38.8
19:45 1025 30.27 854 25.22 12.1 53.7 57 3.8 38.8
19:50 1025 30.27 854 25.22 11.9 53.4 57 3.7 38.6
19:55 1025 30.27 854 25.22 11.8 53.3 57 3.6 38.5
20:00 1025 30.27 854 25.22 11.8 53.2 56 3.5 38.2
20:05 1025 30.27 854 25.22 11.8 53.2 56 3.4 38.1
20:10 1025 30.27 854 25.22 11.7 53.1 57 3.5 38.2
20:15 1025 30.27 854 25.22 11.6 52.9 57 3.5 38.4
20:20 1025 30.27 854 25.22 11.5 52.8 57 3.3 37.9
20:25 1025 30.27 854 25.22 11.6 53 56 3.2 37.8
20:30 1025 30.27 854 25.22 11.7 53 56 3.2 37.8
20:35 1025 30.27 855 25.25 11.7 53 56 3.2 37.8
20:40 1025 30.27 855 25.25 11.6 52.9 56 3.1 37.5
20:45 1025 30.27 855 25.25 11.5 52.7 56 3.1 37.6
20:50 1025 30.27 855 25.25 11.4 52.5 56 2.9 37.2
20:55 1025 30.27 855 25.25 11.4 52.6 56 3.1 37.5
21:00 1025 30.27 855 25.25 11.4 52.6 56 3 37.4
21:05 1025 30.27 855 25.25 11.5 52.8 56 3 37.4
21:10 1026 30.3 855 25.25 11.4 52.5 56 3 37.4
21:15 1026 30.3 855 25.25 11.3 52.4 57 3.1 37.6
21:20 1026 30.3 855 25.25 11.3 52.3 57 3 37.5
21:25 1026 30.3 855 25.25 11.2 52.1 57 3.1 37.6
21:30 1026 30.3 855 25.25 11 51.7 58 3 37.5
21:35 1026 30.3 855 25.25 10.8 51.4 59 3.2 37.7
21:40 1026 30.3 855 25.25 10.4 50.8 61 3.2 37.7
21:45 1026 30.3 855 25.25 10.1 50.1 62 3.2 37.8
21:50 1026 30.3 855 25.25 9.8 49.6 63 3 37.4
21:55 1026 30.3 855 25.25 9.7 49.5 62 2.9 37.2
22:00 1026 30.3 855 25.25 9.7 49.5 62 2.8 37
22:05 1026 30.3 855 25.25 9.8 49.6 62 2.8 37
22:10 1026 30.3 855 25.25 9.7 49.5 62 2.8 37.1
22:15 1026 30.3 855 25.25 9.7 49.5 62 2.7 36.9
22:20 1026 30.3 855 25.25 9.8 49.6 61 2.8 37
22:25 1026 30.3 855 25.25 9.7 49.5 61 2.7 36.9
22:30 1026 30.3 855 25.25 9.8 49.6 61 2.7 36.8
22:35 1026 30.3 855 25.25 9.8 49.6 61 2.7 36.8
22:40 1026 30.3 855 25.25 9.9 49.9 60 2.5 36.5
22:45 1026 30.3 855 25.25 10.2 50.4 58 2.3 36.2
22:50 1026 30.3 855 25.25 10.4 50.8 57 2.4 36.4
22:55 1026 30.3 855 25.25 10.5 50.9 57 2.4 36.4
23:00 1026 30.3 855 25.25 10.4 50.7 58 2.5 36.5
23:05 1026 30.3 855 25.25 10.3 50.5 57 2.3 36.1
23:10 1026 30.3 855 25.25 10.5 51 56 2.3 36.1
23:15 1026 30.3 855 25.25 10.6 51 56 2.3 36.1
23:20 1026 30.3 855 25.25 10.5 50.8 57 2.4 36.3
23:25 1026 30.3 855 25.25 10.3 50.6 58 2.4 36.3
23:30 1026 30.3 855 25.25 10.3 50.5 57 2.2 36
23:35 1026 30.3 855 25.25 10.3 50.5 58 2.3 36.2
23:40 1026 30.3 855 25.25 10.2 50.4 57 2.2 35.9
23:45 1026 30.3 855 25.25 10.3 50.6 57 2.3 36.1
23:50 1026 30.3 855 25.25 10.2 50.4 59 2.6 36.6
23:55 1026 30.3 855 25.25 10 50 60 2.6 36.6
24:00 1026 30.3 855 25.25 9.8 49.7 59 2.2 36